createdAt,value
2017-07-02T00:00:50.530Z,86.06
2017-07-02T00:01:49.959Z,86.06
2017-07-02T00:02:49.658Z,86.12
2017-07-02T00:03:47.867Z,86.14
2017-07-02T00:04:50.972Z,86.18
2017-07-02T00:05:48.179Z,86.25
2017-07-02T00:06:48.887Z,86.30
2017-07-02T00:08:54.558Z,86.34
2017-07-02T00:09:51.395Z,86.37
2017-07-02T00:10:53.836Z,86.37
2017-07-02T00:11:52.391Z,86.39
2017-07-02T00:12:54.096Z,86.40
2017-07-02T00:13:55.723Z,86.44
2017-07-02T00:14:54.235Z,86.44
2017-07-02T00:15:51.002Z,86.48
2017-07-02T00:16:49.636Z,86.50
2017-07-02T00:17:49.047Z,86.51
2017-07-02T00:18:46.584Z,86.51
2017-07-02T00:19:44.011Z,86.54
2017-07-02T00:20:42.740Z,86.56
2017-07-02T00:21:41.414Z,86.61
2017-07-02T00:22:41.770Z,86.65
2017-07-02T00:23:45.123Z,86.68
2017-07-02T00:24:41.949Z,86.72
2017-07-02T00:25:45.408Z,86.76
2017-07-02T00:26:46.022Z,86.77
2017-07-02T00:27:44.546Z,86.79
2017-07-02T00:30:01.707Z,86.82
2017-07-02T00:31:04.687Z,86.84
2017-07-02T00:32:01.270Z,86.83
2017-07-02T00:33:03.103Z,86.83
2017-07-02T00:35:19.583Z,86.84
2017-07-02T00:36:19.188Z,86.85
2017-07-02T00:38:24.536Z,86.88
2017-07-02T00:39:21.859Z,86.91
2017-07-02T00:40:27.436Z,86.93
2017-07-02T00:41:26.903Z,86.95
2017-07-02T00:42:29.416Z,87.00
2017-07-02T00:43:29.899Z,87.04
2017-07-02T00:44:28.385Z,87.03
2017-07-02T00:45:27.811Z,87.05
2017-07-02T00:46:28.303Z,87.08
2017-07-02T00:47:25.831Z,87.07
2017-07-02T00:48:22.406Z,87.12
2017-07-02T00:49:21.333Z,87.15
2017-07-02T00:50:20.415Z,87.17
2017-07-02T00:51:24.953Z,87.20
2017-07-02T00:52:22.742Z,87.22
2017-07-02T00:53:25.320Z,87.23
2017-07-02T00:54:28.771Z,87.24
2017-07-02T00:55:26.211Z,87.24
2017-07-02T00:56:24.655Z,87.23
2017-07-02T00:57:25.088Z,87.22
2017-07-02T00:58:23.799Z,87.21
2017-07-02T00:59:21.307Z,87.21
2017-07-02T01:00:20.127Z,87.20
2017-07-02T01:01:22.804Z,87.20
2017-07-02T01:02:20.506Z,87.22
2017-07-02T01:03:20.279Z,87.22
2017-07-02T01:04:22.900Z,87.23
2017-07-02T01:05:22.627Z,87.22
2017-07-02T01:06:23.243Z,87.21
2017-07-02T01:07:21.503Z,87.23
2017-07-02T01:08:23.012Z,87.22
2017-07-02T01:09:22.385Z,87.24
2017-07-02T01:10:21.655Z,87.23
2017-07-02T01:11:20.350Z,87.25
2017-07-02T01:13:29.935Z,87.32
2017-07-02T01:15:35.591Z,87.33
2017-07-02T01:19:07.291Z,87.36
2017-07-02T01:20:10.978Z,87.39
2017-07-02T01:21:08.587Z,87.38
2017-07-02T01:24:36.890Z,87.39
2017-07-02T01:25:33.631Z,87.39
2017-07-02T01:26:39.987Z,87.39
2017-07-02T01:27:40.335Z,87.37
2017-07-02T01:28:37.932Z,87.41
2017-07-02T01:29:38.381Z,87.40
2017-07-02T01:30:43.885Z,87.41
2017-07-02T01:31:52.999Z,87.42
2017-07-02T01:32:57.482Z,87.41
2017-07-02T01:36:22.390Z,87.52
2017-07-02T01:37:21.858Z,87.49
2017-07-02T01:38:23.711Z,87.49
2017-07-02T01:41:55.559Z,87.48
2017-07-02T01:42:52.175Z,87.49
2017-07-02T01:43:54.756Z,87.50
2017-07-02T01:44:57.428Z,87.51
2017-07-02T01:45:54.073Z,87.53
2017-07-02T01:48:01.248Z,87.53
2017-07-02T01:50:16.093Z,87.57
2017-07-02T01:51:14.287Z,87.56
2017-07-02T01:52:15.675Z,87.57
2017-07-02T01:53:16.155Z,87.57
2017-07-02T01:54:14.800Z,87.60
2017-07-02T01:55:15.900Z,87.60
2017-07-02T01:56:18.441Z,87.58
2017-07-02T01:57:23.311Z,87.60
2017-07-02T01:58:20.913Z,87.59
2017-07-02T02:00:37.060Z,87.60
2017-07-02T02:02:43.528Z,87.57
2017-07-02T02:03:44.419Z,87.60
2017-07-02T02:05:53.019Z,87.63
2017-07-02T02:06:52.095Z,87.65
2017-07-02T02:07:51.847Z,87.65
2017-07-02T02:08:48.782Z,87.69
2017-07-02T02:09:50.243Z,87.69
2017-07-02T02:12:02.214Z,87.71
2017-07-02T02:12:59.251Z,87.70
2017-07-02T02:15:13.051Z,87.78
2017-07-02T02:16:10.943Z,87.81
2017-07-02T02:17:08.747Z,87.83
2017-07-02T02:18:07.374Z,87.82
2017-07-02T02:19:07.271Z,87.86
2017-07-02T02:21:17.139Z,87.90
2017-07-02T02:23:29.643Z,87.95
2017-07-02T02:25:43.587Z,87.99
2017-07-02T02:26:43.498Z,87.98
2017-07-02T02:27:46.375Z,87.99
2017-07-02T02:28:44.378Z,88.02
2017-07-02T02:29:41.201Z,88.06
2017-07-02T02:31:56.723Z,88.09
2017-07-02T02:32:54.419Z,88.13
2017-07-02T02:34:59.987Z,88.11
2017-07-02T02:35:58.631Z,88.15
2017-07-02T02:36:58.139Z,88.15
2017-07-02T02:38:00.079Z,88.14
2017-07-02T02:38:57.760Z,88.16
2017-07-02T02:39:58.968Z,88.20
2017-07-02T02:41:01.179Z,88.21
2017-07-02T02:41:59.463Z,88.21
2017-07-02T02:42:58.719Z,88.21
2017-07-02T02:43:57.042Z,88.20
2017-07-02T02:44:55.336Z,88.26
2017-07-02T02:45:55.691Z,88.25
2017-07-02T02:46:57.955Z,88.38
2017-07-02T02:47:54.600Z,88.43
2017-07-02T02:48:51.395Z,88.47
2017-07-02T02:49:55.255Z,88.51
2017-07-02T02:50:51.742Z,88.55
2017-07-02T02:51:50.719Z,88.63
2017-07-02T02:52:48.883Z,88.63
2017-07-02T02:53:46.594Z,88.63
2017-07-02T02:54:44.197Z,88.61
2017-07-02T02:55:40.999Z,88.59
2017-07-02T02:56:39.210Z,88.62
2017-07-02T02:57:37.040Z,88.61
2017-07-02T02:58:35.244Z,88.60
2017-07-02T02:59:34.679Z,88.62
2017-07-02T03:01:40.107Z,88.71
2017-07-02T03:02:36.598Z,88.71
2017-07-02T03:03:33.743Z,88.70
2017-07-02T03:04:30.499Z,88.72
2017-07-02T03:05:27.099Z,88.75
2017-07-02T03:06:24.603Z,88.74
2017-07-02T03:07:21.209Z,88.72
2017-07-02T03:08:19.351Z,88.76
2017-07-02T03:09:17.586Z,88.75
2017-07-02T03:10:14.765Z,88.75
2017-07-02T03:11:12.406Z,88.76
2017-07-02T03:12:08.902Z,88.74
2017-07-02T03:13:08.377Z,88.77
2017-07-02T03:14:10.537Z,88.76
2017-07-02T03:15:07.963Z,88.79
2017-07-02T03:16:06.725Z,88.79
2017-07-02T03:17:06.219Z,88.77
2017-07-02T03:18:03.851Z,88.89
2017-07-02T03:19:01.994Z,88.86
2017-07-02T03:19:59.583Z,88.82
2017-07-02T03:20:57.261Z,88.81
2017-07-02T03:21:57.147Z,88.77
2017-07-02T03:22:54.755Z,88.75
2017-07-02T03:23:52.624Z,88.74
2017-07-02T03:24:49.263Z,88.72
2017-07-02T03:25:49.755Z,88.69
2017-07-02T03:26:47.755Z,88.68
2017-07-02T03:27:48.012Z,88.67
2017-07-02T03:28:47.619Z,88.67
2017-07-02T03:29:45.259Z,88.65
2017-07-02T03:30:42.256Z,88.67
2017-07-02T03:31:41.264Z,88.75
2017-07-02T03:32:38.777Z,88.78
2017-07-02T03:33:36.962Z,88.74
2017-07-02T03:34:34.454Z,88.70
2017-07-02T03:35:32.102Z,88.66
2017-07-02T03:36:30.031Z,88.60
2017-07-02T03:37:27.799Z,88.56
2017-07-02T03:38:24.820Z,88.53
2017-07-02T03:39:22.166Z,88.49
2017-07-02T03:40:19.262Z,88.45
2017-07-02T03:41:16.867Z,88.42
2017-07-02T03:42:14.159Z,88.36
2017-07-02T03:43:12.323Z,88.34
2017-07-02T03:44:09.532Z,88.34
2017-07-02T03:45:06.907Z,88.34
2017-07-02T03:46:05.334Z,88.36
2017-07-02T03:47:02.432Z,88.41
2017-07-02T03:48:03.407Z,88.45
2017-07-02T03:49:00.012Z,88.44
2017-07-02T03:49:57.819Z,88.41
2017-07-02T03:50:55.591Z,88.40
2017-07-02T03:51:52.544Z,88.31
2017-07-02T03:52:49.352Z,88.28
2017-07-02T03:53:47.069Z,88.21
2017-07-02T03:54:44.276Z,88.10
2017-07-02T03:55:42.846Z,87.99
2017-07-02T03:56:41.719Z,87.89
2017-07-02T03:57:38.624Z,87.80
2017-07-02T03:58:37.506Z,87.71
2017-07-02T03:59:36.055Z,87.63
2017-07-02T04:00:33.882Z,87.73
2017-07-02T04:01:31.159Z,87.08
2017-07-02T04:02:29.522Z,86.13
2017-07-02T04:03:26.583Z,85.32
2017-07-02T04:04:23.968Z,84.68
2017-07-02T04:05:20.834Z,84.12
2017-07-02T04:06:17.643Z,83.63
2017-07-02T04:07:14.129Z,83.27
2017-07-02T04:08:10.935Z,83.03
2017-07-02T04:09:07.335Z,82.67
2017-07-02T04:10:04.255Z,82.44
2017-07-02T04:11:00.658Z,82.30
2017-07-02T04:11:57.143Z,81.91
2017-07-02T04:12:53.604Z,81.50
2017-07-02T04:13:50.216Z,81.13
2017-07-02T04:14:46.924Z,81.11
2017-07-02T04:15:43.306Z,80.90
2017-07-02T04:16:40.470Z,80.76
2017-07-02T04:17:36.882Z,80.74
2017-07-02T04:18:33.476Z,80.34
2017-07-02T04:19:29.822Z,80.19
2017-07-02T04:20:26.182Z,80.13
2017-07-02T04:21:22.422Z,80.03
2017-07-02T04:22:18.670Z,79.98
2017-07-02T04:23:14.897Z,79.89
2017-07-02T04:24:11.130Z,79.84
2017-07-02T04:25:07.351Z,79.89
2017-07-02T04:26:03.646Z,79.88
2017-07-02T04:26:59.950Z,79.85
2017-07-02T04:27:56.234Z,79.88
2017-07-02T04:28:52.527Z,79.92
2017-07-02T04:29:48.794Z,79.88
2017-07-02T04:30:45.034Z,79.87
2017-07-02T04:31:41.258Z,79.83
2017-07-02T04:32:37.499Z,79.79
2017-07-02T04:33:33.718Z,79.83
2017-07-02T04:34:29.938Z,79.86
2017-07-02T04:35:26.170Z,79.82
2017-07-02T04:36:22.394Z,79.78
2017-07-02T04:37:18.640Z,79.71
2017-07-02T04:38:14.862Z,79.70
2017-07-02T04:39:11.102Z,79.64
2017-07-02T04:40:07.762Z,79.41
2017-07-02T04:41:04.007Z,79.18
2017-07-02T04:42:00.239Z,79.02
2017-07-02T04:42:56.487Z,78.99
2017-07-02T04:43:52.717Z,78.95
2017-07-02T04:44:48.945Z,78.98
2017-07-02T04:45:45.934Z,79.00
2017-07-02T04:46:42.158Z,78.92
2017-07-02T04:47:38.445Z,78.85
2017-07-02T04:48:34.674Z,78.68
2017-07-02T04:49:30.917Z,78.58
2017-07-02T04:50:27.150Z,78.69
2017-07-02T04:51:23.386Z,78.72
2017-07-02T04:52:19.654Z,78.51
2017-07-02T04:53:15.890Z,78.51
2017-07-02T04:54:12.122Z,78.55
2017-07-02T04:55:08.363Z,78.47
2017-07-02T04:56:04.586Z,78.44
2017-07-02T04:57:00.823Z,78.46
2017-07-02T04:57:57.041Z,78.47
2017-07-02T04:58:53.272Z,78.46
2017-07-02T04:59:49.510Z,78.47
2017-07-02T05:00:45.749Z,78.41
2017-07-02T05:01:41.991Z,78.27
2017-07-02T05:02:38.225Z,78.24
2017-07-02T05:03:34.478Z,78.23
2017-07-02T05:04:30.710Z,78.28
2017-07-02T05:05:26.941Z,78.26
2017-07-02T05:06:23.203Z,78.27
2017-07-02T05:07:19.438Z,78.24
2017-07-02T05:08:15.681Z,78.18
2017-07-02T05:09:11.922Z,78.16
2017-07-02T05:10:08.150Z,78.15
2017-07-02T05:11:04.374Z,78.15
2017-07-02T05:12:00.607Z,77.98
2017-07-02T05:12:56.858Z,77.94
2017-07-02T05:13:53.090Z,77.93
2017-07-02T05:14:49.327Z,77.93
2017-07-02T05:15:45.546Z,78.00
2017-07-02T05:16:41.778Z,78.10
2017-07-02T05:17:38.016Z,78.14
2017-07-02T05:18:34.234Z,78.11
2017-07-02T05:19:30.506Z,78.21
2017-07-02T05:20:26.730Z,78.25
2017-07-02T05:21:22.958Z,78.28
2017-07-02T05:22:19.186Z,78.16
2017-07-02T05:23:15.427Z,78.18
2017-07-02T05:24:11.654Z,78.16
2017-07-02T05:25:07.895Z,78.16
2017-07-02T05:26:04.138Z,78.16
2017-07-02T05:27:00.377Z,78.17
2017-07-02T05:27:56.602Z,78.07
2017-07-02T05:28:52.838Z,78.02
2017-07-02T05:29:49.053Z,77.94
2017-07-02T05:30:45.301Z,77.94
2017-07-02T05:31:41.522Z,77.93
2017-07-02T05:32:37.770Z,78.00
2017-07-02T05:33:34.013Z,78.04
2017-07-02T05:34:31.186Z,78.11
2017-07-02T05:35:27.444Z,77.96
2017-07-02T05:36:23.686Z,77.85
2017-07-02T05:37:19.919Z,77.79
2017-07-02T05:38:16.149Z,77.67
2017-07-02T05:39:12.380Z,77.57
2017-07-02T05:40:08.614Z,77.59
2017-07-02T05:41:04.854Z,77.68
2017-07-02T05:42:01.109Z,77.61
2017-07-02T05:42:57.329Z,77.52
2017-07-02T05:43:53.557Z,77.52
2017-07-02T05:44:49.793Z,77.50
2017-07-02T05:45:46.014Z,77.49
2017-07-02T05:46:42.247Z,77.44
2017-07-02T05:47:38.504Z,77.41
2017-07-02T05:48:34.736Z,77.40
2017-07-02T05:49:30.957Z,77.42
2017-07-02T05:50:27.181Z,77.42
2017-07-02T05:51:23.399Z,77.53
2017-07-02T05:52:19.650Z,77.67
2017-07-02T05:53:15.883Z,77.71
2017-07-02T05:54:12.113Z,77.61
2017-07-02T05:55:08.341Z,77.67
2017-07-02T05:56:04.553Z,77.66
2017-07-02T05:57:00.797Z,77.61
2017-07-02T05:57:57.530Z,77.53
2017-07-02T05:58:53.758Z,77.50
2017-07-02T05:59:49.998Z,77.35
2017-07-02T06:00:46.242Z,77.34
2017-07-02T06:01:42.502Z,77.34
2017-07-02T06:02:38.775Z,77.24
2017-07-02T06:03:35.002Z,77.16
2017-07-02T06:04:31.230Z,77.18
2017-07-02T06:05:27.474Z,76.93
2017-07-02T06:06:23.702Z,76.86
2017-07-02T06:07:19.930Z,76.89
2017-07-02T06:08:16.166Z,76.92
2017-07-02T06:09:12.402Z,76.99
2017-07-02T06:10:08.630Z,77.01
2017-07-02T06:11:04.906Z,77.01
2017-07-02T06:12:01.131Z,77.04
2017-07-02T06:12:57.362Z,77.00
2017-07-02T06:13:53.606Z,77.05
2017-07-02T06:14:49.834Z,77.20
2017-07-02T06:15:46.058Z,77.44
2017-07-02T06:16:42.294Z,77.35
2017-07-02T06:17:38.518Z,77.25
2017-07-02T06:18:34.767Z,77.19
2017-07-02T06:19:31.006Z,77.02
2017-07-02T06:20:27.246Z,77.02
2017-07-02T06:21:23.466Z,77.15
2017-07-02T06:22:19.686Z,76.96
2017-07-02T06:23:15.921Z,76.83
2017-07-02T06:24:12.165Z,76.76
2017-07-02T06:25:08.390Z,76.58
2017-07-02T06:26:04.634Z,76.31
2017-07-02T06:27:00.858Z,76.21
2017-07-02T06:27:57.090Z,76.14
2017-07-02T06:28:53.307Z,76.09
2017-07-02T06:29:49.559Z,76.10
2017-07-02T06:30:45.803Z,76.20
2017-07-02T06:31:42.035Z,76.26
2017-07-02T06:32:38.262Z,76.37
2017-07-02T06:33:34.482Z,76.40
2017-07-02T06:34:30.722Z,76.56
2017-07-02T06:35:26.970Z,76.65
2017-07-02T06:36:23.186Z,76.77
2017-07-02T06:37:19.409Z,76.91
2017-07-02T06:38:15.633Z,77.14
2017-07-02T06:39:11.873Z,77.07
2017-07-02T06:40:08.117Z,77.01
2017-07-02T06:41:04.348Z,77.03
2017-07-02T06:42:00.579Z,77.10
2017-07-02T06:42:56.813Z,77.04
2017-07-02T06:43:53.037Z,76.93
2017-07-02T06:44:49.266Z,76.80
2017-07-02T06:45:45.510Z,76.44
2017-07-02T06:46:41.744Z,76.43
2017-07-02T06:47:37.965Z,76.47
2017-07-02T06:48:34.186Z,76.47
2017-07-02T06:49:30.426Z,76.49
2017-07-02T06:50:26.667Z,76.22
2017-07-02T06:51:22.902Z,76.20
2017-07-02T06:52:19.158Z,76.17
2017-07-02T06:53:15.382Z,76.15
2017-07-02T06:54:11.613Z,76.20
2017-07-02T06:55:07.870Z,76.29
2017-07-02T06:56:04.129Z,76.55
2017-07-02T06:57:00.366Z,76.70
2017-07-02T06:57:56.594Z,76.81
2017-07-02T06:58:52.846Z,77.09
2017-07-02T06:59:49.077Z,77.08
2017-07-02T07:00:45.297Z,77.08
2017-07-02T07:01:41.538Z,77.18
2017-07-02T07:02:37.778Z,77.33
2017-07-02T07:03:34.001Z,77.43
2017-07-02T07:04:30.241Z,77.51
2017-07-02T07:05:26.503Z,77.73
2017-07-02T07:06:22.754Z,77.74
2017-07-02T07:07:19.001Z,77.92
2017-07-02T07:08:15.234Z,78.09
2017-07-02T07:09:11.467Z,78.34
2017-07-02T07:10:07.706Z,78.52
2017-07-02T07:11:03.930Z,78.63
2017-07-02T07:12:00.172Z,78.73
2017-07-02T07:12:56.426Z,78.71
2017-07-02T07:13:52.655Z,78.72
2017-07-02T07:14:48.902Z,78.95
2017-07-02T07:15:45.145Z,79.06
2017-07-02T07:16:41.380Z,79.13
2017-07-02T07:17:37.626Z,79.26
2017-07-02T07:18:33.854Z,79.37
2017-07-02T07:19:30.086Z,79.36
2017-07-02T07:20:26.317Z,79.17
2017-07-02T07:21:22.555Z,78.95
2017-07-02T07:22:18.792Z,78.84
2017-07-02T07:23:15.038Z,78.82
2017-07-02T07:24:11.270Z,78.74
2017-07-02T07:25:07.494Z,78.66
2017-07-02T07:26:03.721Z,78.54
2017-07-02T07:26:59.982Z,78.50
2017-07-02T07:27:56.214Z,78.53
2017-07-02T07:28:52.490Z,78.59
2017-07-02T07:29:48.722Z,78.61
2017-07-02T07:30:44.963Z,78.56
2017-07-02T07:31:41.202Z,78.53
2017-07-02T07:32:37.434Z,78.44
2017-07-02T07:33:33.662Z,78.40
2017-07-02T07:34:29.915Z,78.32
2017-07-02T07:35:26.154Z,78.14
2017-07-02T07:36:22.382Z,78.05
2017-07-02T07:37:18.610Z,77.99
2017-07-02T07:38:14.850Z,77.87
2017-07-02T07:39:11.090Z,77.69
2017-07-02T07:40:07.314Z,77.58
2017-07-02T07:41:03.559Z,77.40
2017-07-02T07:41:59.798Z,77.32
2017-07-02T07:42:56.038Z,77.31
2017-07-02T07:43:52.258Z,77.29
2017-07-02T07:44:48.493Z,77.33
2017-07-02T07:45:44.719Z,77.44
2017-07-02T07:46:40.966Z,77.73
2017-07-02T07:47:37.202Z,77.89
2017-07-02T07:48:33.459Z,77.90
2017-07-02T07:49:29.690Z,77.87
2017-07-02T07:50:25.938Z,77.85
2017-07-02T07:51:22.191Z,77.93
2017-07-02T07:52:18.442Z,77.94
2017-07-02T07:53:14.690Z,78.00
2017-07-02T07:54:10.930Z,78.14
2017-07-02T07:55:07.178Z,78.18
2017-07-02T07:56:03.450Z,78.21
2017-07-02T07:56:59.735Z,78.28
2017-07-02T07:57:56.034Z,78.30
2017-07-02T07:58:52.314Z,78.42
2017-07-02T07:59:48.551Z,78.45
2017-07-02T08:00:44.850Z,78.40
2017-07-02T08:01:41.130Z,78.46
2017-07-02T08:02:37.390Z,78.52
2017-07-02T08:03:33.632Z,78.67
2017-07-02T08:04:29.869Z,78.89
2017-07-02T08:05:26.103Z,78.89
2017-07-02T08:06:22.353Z,78.79
2017-07-02T08:07:18.578Z,78.64
2017-07-02T08:08:14.833Z,78.53
2017-07-02T08:09:11.057Z,78.57
2017-07-02T08:10:07.281Z,78.44
2017-07-02T08:11:03.538Z,78.27
2017-07-02T08:11:59.790Z,78.18
2017-07-02T08:12:56.020Z,78.21
2017-07-02T08:13:52.267Z,78.17
2017-07-02T08:14:48.509Z,78.04
2017-07-02T08:15:44.746Z,78.11
2017-07-02T08:16:41.001Z,78.28
2017-07-02T08:17:37.226Z,78.00
2017-07-02T08:18:33.460Z,77.67
2017-07-02T08:19:29.691Z,77.03
2017-07-02T08:20:25.919Z,76.97
2017-07-02T08:21:22.154Z,76.99
2017-07-02T08:22:18.415Z,77.17
2017-07-02T08:23:14.649Z,77.34
2017-07-02T08:24:10.878Z,77.47
2017-07-02T08:25:07.135Z,77.51
2017-07-02T08:26:03.362Z,77.36
2017-07-02T08:26:59.593Z,77.21
2017-07-02T08:27:55.840Z,76.91
2017-07-02T08:28:52.066Z,76.60
2017-07-02T08:29:48.310Z,76.30
2017-07-02T08:30:44.550Z,76.15
2017-07-02T08:31:40.782Z,76.02
2017-07-02T08:32:37.046Z,75.68
2017-07-02T08:33:33.325Z,75.27
2017-07-02T08:34:29.586Z,75.33
2017-07-02T08:35:25.818Z,75.21
2017-07-02T08:36:22.041Z,75.17
2017-07-02T08:37:18.279Z,75.03
2017-07-02T08:38:14.522Z,75.08
2017-07-02T08:39:11.394Z,75.24
2017-07-02T08:40:07.626Z,75.38
2017-07-02T08:41:03.854Z,75.41
2017-07-02T08:42:00.094Z,74.84
2017-07-02T08:42:56.327Z,74.90
2017-07-02T08:43:52.586Z,74.76
2017-07-02T08:44:49.330Z,74.67
2017-07-02T08:45:45.554Z,74.55
2017-07-02T08:46:41.779Z,74.43
2017-07-02T08:47:38.006Z,74.53
2017-07-02T08:48:34.268Z,74.71
2017-07-02T08:49:30.493Z,74.82
2017-07-02T08:50:26.746Z,74.51
2017-07-02T08:51:22.981Z,74.29
2017-07-02T08:52:19.207Z,74.19
2017-07-02T08:53:15.442Z,74.10
2017-07-02T08:54:11.682Z,74.16
2017-07-02T08:55:07.906Z,74.13
2017-07-02T08:56:04.155Z,74.13
2017-07-02T08:57:00.395Z,74.16
2017-07-02T08:57:56.634Z,74.35
2017-07-02T08:58:52.870Z,74.24
2017-07-02T08:59:49.106Z,73.96
2017-07-02T09:00:45.373Z,73.66
2017-07-02T09:01:41.608Z,73.51
2017-07-02T09:02:37.843Z,73.22
2017-07-02T09:03:34.074Z,73.32
2017-07-02T09:04:30.321Z,73.38
2017-07-02T09:05:26.550Z,73.36
2017-07-02T09:06:22.773Z,73.37
2017-07-02T09:07:19.013Z,73.37
2017-07-02T09:08:15.238Z,73.40
2017-07-02T09:09:11.490Z,73.37
2017-07-02T09:10:07.717Z,73.22
2017-07-02T09:11:03.991Z,73.06
2017-07-02T09:12:00.202Z,73.09
2017-07-02T09:12:56.433Z,73.10
2017-07-02T09:13:52.695Z,72.85
2017-07-02T09:14:48.968Z,72.57
2017-07-02T09:15:45.225Z,72.42
2017-07-02T09:16:41.454Z,72.47
2017-07-02T09:17:37.692Z,72.45
2017-07-02T09:18:33.925Z,72.48
2017-07-02T09:19:30.150Z,72.49
2017-07-02T09:20:26.401Z,72.57
2017-07-02T09:21:22.630Z,72.71
2017-07-02T09:22:18.862Z,72.82
2017-07-02T09:23:15.126Z,72.94
2017-07-02T09:24:11.366Z,73.02
2017-07-02T09:25:07.638Z,73.12
2017-07-02T09:26:03.881Z,73.17
2017-07-02T09:27:00.157Z,73.00
2017-07-02T09:27:56.354Z,72.98
2017-07-02T09:28:52.590Z,72.92
2017-07-02T09:29:49.326Z,72.90
2017-07-02T09:30:45.577Z,72.85
2017-07-02T09:31:41.821Z,72.83
2017-07-02T09:32:38.059Z,72.83
2017-07-02T09:33:34.298Z,73.05
2017-07-02T09:34:30.542Z,73.10
2017-07-02T09:35:26.815Z,72.94
2017-07-02T09:36:23.047Z,72.44
2017-07-02T09:37:19.290Z,72.15
2017-07-02T09:38:15.533Z,72.25
2017-07-02T09:39:11.786Z,72.39
2017-07-02T09:40:07.987Z,72.15
2017-07-02T09:41:04.226Z,72.25
2017-07-02T09:42:00.454Z,72.34
2017-07-02T09:42:56.682Z,72.30
2017-07-02T09:43:52.955Z,72.24
2017-07-02T09:44:49.213Z,72.31
2017-07-02T09:45:45.475Z,72.02
2017-07-02T09:46:41.698Z,71.93
2017-07-02T09:47:37.929Z,71.77
2017-07-02T09:48:34.155Z,71.42
2017-07-02T09:49:30.396Z,71.17
2017-07-02T09:50:26.621Z,70.85
2017-07-02T09:51:22.863Z,70.69
2017-07-02T09:52:19.109Z,70.65
2017-07-02T09:53:15.348Z,70.73
2017-07-02T09:54:11.590Z,70.76
2017-07-02T09:55:07.834Z,70.46
2017-07-02T09:56:04.066Z,70.17
2017-07-02T09:57:00.311Z,70.17
2017-07-02T09:57:56.543Z,70.13
2017-07-02T09:58:52.777Z,69.65
2017-07-02T09:59:49.027Z,69.19
2017-07-02T10:00:45.264Z,68.98
2017-07-02T10:01:41.521Z,69.11
2017-07-02T10:02:37.762Z,69.41
2017-07-02T10:03:34.000Z,69.66
2017-07-02T10:04:30.238Z,69.59
2017-07-02T10:05:26.487Z,69.37
2017-07-02T10:06:22.719Z,69.23
2017-07-02T10:07:18.969Z,69.22
2017-07-02T10:08:15.197Z,68.81
2017-07-02T10:09:11.645Z,68.18
2017-07-02T10:10:07.887Z,67.66
2017-07-02T10:11:04.121Z,67.32
2017-07-02T10:12:00.365Z,67.32
2017-07-02T10:12:56.624Z,67.34
2017-07-02T10:13:52.874Z,67.29
2017-07-02T10:14:49.108Z,67.36
2017-07-02T10:15:45.343Z,67.18
2017-07-02T10:16:41.582Z,67.09
2017-07-02T10:17:37.846Z,67.23
2017-07-02T10:18:34.095Z,67.05
2017-07-02T10:19:30.339Z,66.82
2017-07-02T10:20:26.596Z,66.48
2017-07-02T10:21:22.862Z,66.03
2017-07-02T10:22:19.095Z,65.82
2017-07-02T10:23:15.347Z,65.82
2017-07-02T10:24:11.583Z,65.80
2017-07-02T10:25:07.851Z,65.81
2017-07-02T10:26:04.131Z,65.79
2017-07-02T10:27:00.362Z,65.34
2017-07-02T10:27:56.587Z,65.39
2017-07-02T10:28:52.850Z,65.68
2017-07-02T10:29:49.103Z,65.61
2017-07-02T10:30:45.337Z,65.24
2017-07-02T10:31:41.574Z,65.52
2017-07-02T10:32:37.801Z,65.92
2017-07-02T10:33:34.054Z,66.07
2017-07-02T10:34:30.286Z,66.11
2017-07-02T10:35:26.520Z,65.69
2017-07-02T10:36:22.750Z,65.75
2017-07-02T10:37:18.982Z,65.81
2017-07-02T10:38:15.220Z,65.85
2017-07-02T10:39:11.473Z,65.72
2017-07-02T10:40:07.712Z,65.85
2017-07-02T10:41:03.943Z,65.94
2017-07-02T10:42:00.193Z,65.59
2017-07-02T10:42:56.495Z,65.07
2017-07-02T10:43:52.749Z,64.76
2017-07-02T10:44:49.050Z,64.72
2017-07-02T10:45:45.282Z,64.43
2017-07-02T10:46:41.526Z,64.27
2017-07-02T10:47:37.793Z,64.10
2017-07-02T10:48:34.024Z,63.87
2017-07-02T10:49:30.266Z,63.69
2017-07-02T10:50:26.503Z,63.86
2017-07-02T10:51:22.722Z,64.21
2017-07-02T10:52:18.967Z,64.27
2017-07-02T10:53:15.251Z,64.50
2017-07-02T10:54:11.618Z,64.76
2017-07-02T10:55:07.842Z,64.95
2017-07-02T10:56:04.098Z,64.85
2017-07-02T10:57:00.346Z,64.89
2017-07-02T10:57:56.570Z,64.82
2017-07-02T10:58:52.815Z,64.65
2017-07-02T10:59:49.084Z,64.53
2017-07-02T11:00:45.322Z,64.39
2017-07-02T11:01:41.558Z,64.19
2017-07-02T11:02:37.782Z,64.22
2017-07-02T11:03:34.010Z,64.16
2017-07-02T11:04:30.246Z,64.13
2017-07-02T11:05:26.505Z,64.37
2017-07-02T11:06:22.734Z,64.70
2017-07-02T11:07:18.974Z,64.64
2017-07-02T11:08:15.198Z,64.37
2017-07-02T11:09:11.435Z,64.70
2017-07-02T11:10:07.690Z,65.20
2017-07-02T11:11:03.918Z,65.43
2017-07-02T11:12:00.158Z,65.50
2017-07-02T11:12:56.378Z,65.40
2017-07-02T11:13:52.598Z,65.46
2017-07-02T11:14:48.839Z,65.57
2017-07-02T11:15:45.078Z,65.60
2017-07-02T11:16:41.301Z,65.78
2017-07-02T11:17:37.527Z,65.79
2017-07-02T11:18:33.750Z,65.83
2017-07-02T11:19:29.986Z,66.10
2017-07-02T11:20:26.245Z,66.74
2017-07-02T11:21:22.486Z,66.52
2017-07-02T11:22:18.705Z,66.28
2017-07-02T11:23:14.945Z,65.75
2017-07-02T11:24:11.174Z,65.51
2017-07-02T11:25:07.410Z,65.54
2017-07-02T11:26:03.658Z,65.55
2017-07-02T11:26:59.887Z,65.44
2017-07-02T11:27:56.117Z,65.49
2017-07-02T11:28:52.339Z,65.50
2017-07-02T11:29:48.558Z,65.60
2017-07-02T11:30:44.786Z,65.80
2017-07-02T11:31:41.023Z,66.06
2017-07-02T11:32:37.242Z,66.30
2017-07-02T11:33:33.477Z,65.70
2017-07-02T11:34:29.715Z,65.00
2017-07-02T11:35:25.959Z,65.28
2017-07-02T11:36:22.271Z,65.34
2017-07-02T11:37:18.578Z,64.99
2017-07-02T11:38:14.823Z,64.79
2017-07-02T11:39:11.077Z,64.48
2017-07-02T11:40:07.310Z,64.46
2017-07-02T11:41:03.534Z,63.91
2017-07-02T11:41:59.783Z,63.78
2017-07-02T11:42:56.011Z,63.91
2017-07-02T11:43:52.278Z,63.89
2017-07-02T11:44:48.493Z,63.70
2017-07-02T11:45:44.717Z,63.82
2017-07-02T11:46:40.971Z,63.89
2017-07-02T11:47:37.205Z,64.18
2017-07-02T11:48:33.450Z,64.74
2017-07-02T11:49:29.682Z,64.54
2017-07-02T11:50:25.902Z,64.11
2017-07-02T11:51:22.128Z,64.07
2017-07-02T11:52:18.410Z,64.11
2017-07-02T11:53:14.642Z,64.15
2017-07-02T11:54:10.862Z,63.74
2017-07-02T11:55:07.098Z,63.57
2017-07-02T11:56:03.318Z,63.62
2017-07-02T11:56:59.589Z,63.52
2017-07-02T11:57:55.873Z,63.32
2017-07-02T11:58:52.102Z,63.56
2017-07-02T11:59:48.326Z,63.55
2017-07-02T12:00:44.565Z,63.51
2017-07-02T12:01:40.793Z,63.31
2017-07-02T12:02:37.030Z,63.34
2017-07-02T12:03:33.271Z,63.36
2017-07-02T12:04:29.514Z,63.33
2017-07-02T12:05:25.742Z,62.84
2017-07-02T12:06:21.982Z,62.88
2017-07-02T12:07:18.218Z,62.86
2017-07-02T12:08:14.473Z,62.92
2017-07-02T12:09:10.714Z,63.04
2017-07-02T12:10:06.934Z,63.06
2017-07-02T12:11:03.157Z,63.04
2017-07-02T12:11:59.382Z,63.30
2017-07-02T12:12:55.638Z,63.83
2017-07-02T12:13:51.958Z,63.72
2017-07-02T12:14:48.182Z,63.71
2017-07-02T12:15:44.443Z,63.30
2017-07-02T12:16:40.693Z,62.82
2017-07-02T12:17:36.917Z,62.72
2017-07-02T12:18:33.142Z,62.94
2017-07-02T12:19:29.382Z,63.04
2017-07-02T12:20:25.613Z,62.68
2017-07-02T12:21:21.842Z,61.56
2017-07-02T12:22:18.082Z,61.49
2017-07-02T12:23:14.323Z,61.58
2017-07-02T12:24:10.549Z,61.69
2017-07-02T12:25:06.785Z,61.84
2017-07-02T12:26:03.010Z,61.50
2017-07-02T12:26:59.240Z,61.34
2017-07-02T12:27:55.497Z,61.07
2017-07-02T12:28:51.734Z,60.55
2017-07-02T12:29:47.974Z,59.94
2017-07-02T12:30:44.210Z,59.84
2017-07-02T12:31:40.511Z,60.04
2017-07-02T12:32:36.750Z,59.64
2017-07-02T12:33:32.970Z,59.67
2017-07-02T12:34:29.193Z,59.72
2017-07-02T12:35:25.463Z,59.59
2017-07-02T12:36:21.703Z,58.76
2017-07-02T12:37:17.943Z,59.02
2017-07-02T12:38:14.270Z,58.96
2017-07-02T12:39:10.510Z,58.79
2017-07-02T12:40:06.734Z,58.42
2017-07-02T12:41:02.977Z,58.24
2017-07-02T12:41:59.218Z,58.19
2017-07-02T12:42:55.459Z,58.27
2017-07-02T12:43:51.706Z,58.42
2017-07-02T12:44:47.946Z,57.95
2017-07-02T12:45:44.191Z,57.54
2017-07-02T12:46:40.433Z,57.09
2017-07-02T12:47:36.679Z,57.05